MMTM/TAM METAR and TAF weather

Enter ICAO airport designator
Station Type Date Time Source
MMTM METAR 2018/12/10 04:40 UTC NOAA

MMTM 100440Z E35010KT 6SM BKN020 OVC050 17/11 A3035 RMK 8/5// BINOVC


Station Type Date Time Source
MMTM Decoded METAR 2018/12/10 04:40 UTC NOAA

Tampico / Gen Fj Mina, Mexico (MMTM) 22-17N 097-52W
Dec 09, 2018 - 11:40 PM EST / 2018.12.10 0440 UTC
Visibility: 6 mile(s):0
Sky conditions: overcast
Temperature: 62 F (17 C)
Dew Point: 51 F (11 C)
Relative Humidity: 67%
Pressure (altimeter): 30.35 in. Hg (1027 hPa)
ob: MMTM 100440Z E35010KT 6SM BKN020 OVC050 17/11 A3035 RMK 8/5// BINOVC
cycle: 4

Station Type Date Time Source
MMTM TAF 2018/12/10 06:11 UTC NOAA

TAF MMTM 100504Z 1006/1106 35010KT 6SM HZ BKN020 OVC070
FM101800 36015KT P6SM BKN025 BKN080
FM110500 03006KT P6SM SCT020 BKN080


Example: see airport list